createdAt,value
2023-01-09T00:01:25.311Z,5.70
2023-01-09T00:03:53.208Z,5.70
2023-01-09T00:06:21.230Z,5.70
2023-01-09T00:08:49.072Z,5.60
2023-01-09T00:11:16.955Z,5.60
2023-01-09T00:13:45.206Z,5.60
2023-01-09T00:16:13.001Z,5.60
2023-01-09T00:18:42.326Z,5.60
2023-01-09T00:21:12.436Z,5.70
2023-01-09T00:23:40.448Z,5.60
2023-01-09T00:26:09.536Z,5.60
2023-01-09T00:28:37.681Z,5.60
2023-01-09T00:31:07.422Z,5.70
2023-01-09T00:33:37.430Z,5.60
2023-01-09T00:36:07.424Z,5.70
2023-01-09T00:38:36.689Z,5.60
2023-01-09T00:41:07.326Z,5.60
2023-01-09T00:43:39.229Z,5.60
2023-01-09T00:46:08.869Z,5.60
2023-01-09T00:48:39.943Z,5.60
2023-01-09T00:51:10.032Z,5.50
2023-01-09T00:53:40.303Z,5.40
2023-01-09T00:56:11.656Z,5.50
2023-01-09T00:58:39.559Z,5.50
2023-01-09T01:01:07.656Z,5.50
2023-01-09T01:03:35.852Z,5.50
2023-01-09T01:06:21.484Z,5.50
2023-01-09T01:08:50.647Z,5.60
2023-01-09T01:11:18.575Z,5.50
2023-01-09T01:13:46.352Z,5.50
2023-01-09T01:16:14.905Z,5.50
2023-01-09T01:18:42.896Z,5.50
2023-01-09T01:21:12.836Z,5.50
2023-01-09T01:23:40.962Z,5.50
2023-01-09T01:26:12.251Z,5.60
2023-01-09T01:28:40.500Z,5.50
2023-01-09T01:31:08.673Z,5.50
2023-01-09T01:33:36.923Z,5.50
2023-01-09T01:36:06.705Z,5.40
2023-01-09T01:38:35.162Z,5.40
2023-01-09T01:41:03.651Z,5.40
2023-01-09T01:43:55.343Z,5.50
2023-01-09T01:46:23.685Z,5.50
2023-01-09T01:48:55.208Z,5.50
2023-01-09T01:51:24.916Z,5.40
2023-01-09T01:53:56.499Z,5.50
2023-01-09T01:56:28.944Z,5.50
2023-01-09T01:59:06.507Z,5.40
2023-01-09T02:01:36.246Z,5.50
2023-01-09T02:04:05.197Z,5.50
2023-01-09T02:06:35.607Z,5.50
2023-01-09T02:09:05.351Z,5.40
2023-01-09T02:11:34.279Z,5.40
2023-01-09T02:14:04.168Z,5.40
2023-01-09T02:16:42.147Z,5.40
2023-01-09T02:19:43.222Z,5.40
2023-01-09T02:22:24.183Z,5.40
2023-01-09T02:25:16.824Z,5.40
2023-01-09T02:28:19.939Z,5.50
2023-01-09T02:30:54.826Z,5.50
2023-01-09T02:33:39.918Z,5.50
2023-01-09T02:36:17.097Z,5.50
2023-01-09T02:38:55.265Z,5.60
2023-01-09T02:41:26.163Z,5.70
2023-01-09T02:44:13.117Z,5.50
2023-01-09T02:46:42.761Z,5.60
2023-01-09T02:49:10.950Z,5.60
2023-01-09T02:51:49.142Z,5.70
2023-01-09T02:54:26.957Z,5.70
2023-01-09T02:57:13.284Z,5.60
2023-01-09T02:59:56.243Z,5.60
2023-01-09T03:02:40.720Z,5.60
2023-01-09T03:05:13.931Z,5.50
2023-01-09T03:07:46.579Z,5.60
2023-01-09T03:10:20.599Z,5.60
2023-01-09T03:12:51.512Z,5.50
2023-01-09T03:15:21.401Z,5.50
2023-01-09T03:17:53.181Z,5.60
2023-01-09T03:20:24.546Z,5.60
2023-01-09T03:22:57.544Z,5.70
2023-01-09T03:25:26.374Z,5.60
2023-01-09T03:27:57.543Z,5.60
2023-01-09T03:30:26.050Z,5.60
2023-01-09T03:32:55.563Z,5.60
2023-01-09T03:35:23.631Z,5.70
2023-01-09T03:37:52.202Z,5.60
2023-01-09T03:40:20.456Z,5.60
2023-01-09T03:42:48.702Z,5.70
2023-01-09T03:45:16.614Z,5.60
2023-01-09T03:47:44.419Z,5.70
2023-01-09T03:50:13.835Z,5.60
2023-01-09T03:52:41.636Z,5.70
2023-01-09T03:55:10.035Z,5.60
2023-01-09T03:57:37.931Z,5.60
2023-01-09T04:00:06.829Z,5.60
2023-01-09T04:02:34.560Z,5.50
2023-01-09T04:05:02.390Z,5.50
2023-01-09T04:07:31.576Z,5.50
2023-01-09T04:09:59.400Z,5.50
2023-01-09T04:12:27.258Z,5.50
2023-01-09T04:14:55.108Z,5.60
2023-01-09T04:17:22.891Z,5.60
2023-01-09T04:19:50.793Z,5.60
2023-01-09T04:22:18.622Z,5.80
2023-01-09T04:24:47.767Z,5.80
2023-01-09T04:27:15.581Z,5.90
2023-01-09T04:29:43.541Z,5.90
2023-01-09T04:32:11.353Z,6.00
2023-01-09T04:34:39.183Z,6.10
2023-01-09T04:37:07.120Z,6.10
2023-01-09T04:39:34.923Z,6.20
2023-01-09T04:42:04.218Z,6.30
2023-01-09T04:44:32.059Z,6.30
2023-01-09T04:46:59.860Z,6.50
2023-01-09T04:49:27.758Z,6.50
2023-01-09T04:51:55.676Z,6.60
2023-01-09T04:54:23.850Z,6.70
2023-01-09T04:56:51.901Z,6.80
2023-01-09T04:59:21.081Z,6.80
2023-01-09T05:01:49.092Z,6.80
2023-01-09T05:04:17.109Z,6.80
2023-01-09T05:06:44.998Z,6.90
2023-01-09T05:09:12.925Z,7.00
2023-01-09T05:11:40.729Z,7.10
2023-01-09T05:14:08.493Z,7.10
2023-01-09T05:16:37.756Z,7.20
2023-01-09T05:19:05.734Z,7.30
2023-01-09T05:21:33.645Z,7.30
2023-01-09T05:24:01.435Z,7.30
2023-01-09T05:26:29.264Z,7.30
2023-01-09T05:28:57.667Z,7.30
2023-01-09T05:31:26.862Z,7.30
2023-01-09T05:33:56.087Z,7.40
2023-01-09T05:36:23.813Z,7.40
2023-01-09T05:38:51.552Z,7.40
2023-01-09T05:41:19.403Z,7.40
2023-01-09T05:43:47.233Z,7.40
2023-01-09T05:46:15.080Z,7.30
2023-01-09T05:48:44.417Z,7.30
2023-01-09T05:51:13.883Z,7.30
2023-01-09T05:53:41.677Z,7.20
2023-01-09T05:56:11.433Z,7.20
2023-01-09T05:58:39.615Z,7.20
2023-01-09T06:01:08.189Z,7.20
2023-01-09T06:03:36.256Z,7.20
2023-01-09T06:06:04.196Z,7.20
2023-01-09T06:08:33.344Z,7.10
2023-01-09T06:11:01.191Z,7.10
2023-01-09T06:13:28.978Z,7.10
2023-01-09T06:15:56.771Z,7.00
2023-01-09T06:18:24.611Z,7.10
2023-01-09T06:20:52.454Z,7.10
2023-01-09T06:23:20.244Z,7.10
2023-01-09T06:25:49.367Z,7.10
2023-01-09T06:28:17.175Z,7.10
2023-01-09T06:30:45.225Z,7.00
2023-01-09T06:33:13.057Z,7.00
2023-01-09T06:35:40.844Z,7.00
2023-01-09T06:38:08.610Z,7.00
2023-01-09T06:40:36.457Z,6.90
2023-01-09T06:43:05.683Z,7.00
2023-01-09T06:45:33.467Z,6.90
2023-01-09T06:48:01.742Z,6.90
2023-01-09T06:50:29.650Z,6.80
2023-01-09T06:52:57.448Z,6.80
2023-01-09T06:55:26.267Z,6.80
2023-01-09T06:57:54.068Z,6.70
2023-01-09T07:00:23.455Z,6.70
2023-01-09T07:02:51.292Z,6.70
2023-01-09T07:05:19.060Z,6.70
2023-01-09T07:07:46.881Z,6.70
2023-01-09T07:10:15.129Z,6.60
2023-01-09T07:12:42.941Z,6.50
2023-01-09T07:15:11.479Z,6.50
2023-01-09T07:17:40.664Z,6.50
2023-01-09T07:20:10.047Z,6.50
2023-01-09T07:22:37.810Z,6.60
2023-01-09T07:25:06.514Z,6.60
2023-01-09T07:27:34.302Z,6.60
2023-01-09T07:30:02.251Z,6.60
2023-01-09T07:32:30.049Z,6.60
2023-01-09T07:34:59.539Z,6.60
2023-01-09T07:37:27.499Z,6.60
2023-01-09T07:39:55.282Z,6.50
2023-01-09T07:42:24.918Z,6.40
2023-01-09T07:44:52.883Z,6.40
2023-01-09T07:47:20.691Z,6.30
2023-01-09T07:49:48.622Z,6.30
2023-01-09T07:52:18.029Z,6.20
2023-01-09T07:54:45.818Z,6.10
2023-01-09T07:57:13.564Z,6.10
2023-01-09T07:59:41.567Z,6.10
2023-01-09T08:02:10.378Z,6.00
2023-01-09T08:04:38.239Z,5.90
2023-01-09T08:07:06.160Z,5.70
2023-01-09T08:09:35.558Z,5.70
2023-01-09T08:12:04.110Z,5.70
2023-01-09T08:14:32.301Z,5.60
2023-01-09T08:17:00.138Z,5.60
2023-01-09T08:19:27.896Z,5.60
2023-01-09T08:21:55.766Z,5.50
2023-01-09T08:24:23.597Z,5.50
2023-01-09T08:26:52.682Z,5.60
2023-01-09T08:29:20.536Z,5.60
2023-01-09T08:31:48.458Z,5.70
2023-01-09T08:34:16.332Z,5.70
2023-01-09T08:36:44.248Z,5.80
2023-01-09T08:39:12.157Z,5.80
2023-01-09T08:41:57.308Z,5.90
2023-01-09T08:44:44.045Z,6.00
2023-01-09T08:47:13.015Z,6.00
2023-01-09T08:49:40.826Z,6.10
2023-01-09T08:52:08.775Z,6.20
2023-01-09T08:54:38.922Z,6.10
2023-01-09T08:57:06.809Z,6.30
2023-01-09T08:59:36.767Z,6.30
2023-01-09T09:02:04.692Z,6.30
2023-01-09T09:04:32.433Z,6.30
2023-01-09T09:07:00.253Z,6.30
2023-01-09T09:09:28.060Z,6.30
2023-01-09T09:11:55.833Z,6.30
2023-01-09T09:14:41.980Z,6.40
2023-01-09T09:17:11.088Z,6.30
2023-01-09T09:19:39.497Z,6.30
2023-01-09T09:22:07.417Z,6.40
2023-01-09T09:24:35.249Z,6.50
2023-01-09T09:27:03.232Z,6.30
2023-01-09T09:29:31.088Z,6.40
2023-01-09T09:32:00.798Z,6.50
2023-01-09T09:34:30.356Z,6.40
2023-01-09T09:36:58.269Z,6.30
2023-01-09T09:39:26.103Z,6.40
2023-01-09T09:42:38.018Z,6.30
2023-01-09T09:45:25.305Z,6.30
2023-01-09T09:48:01.213Z,6.30
2023-01-09T09:50:47.445Z,6.40
2023-01-09T09:53:19.784Z,6.40
2023-01-09T09:55:50.839Z,6.50
2023-01-09T09:58:23.067Z,6.50
2023-01-09T10:00:51.810Z,6.50
2023-01-09T10:03:33.875Z,6.60
2023-01-09T10:06:07.287Z,6.50
2023-01-09T10:08:40.371Z,6.50
2023-01-09T10:11:15.484Z,6.50
2023-01-09T10:14:00.794Z,6.50
2023-01-09T10:16:36.370Z,6.50
2023-01-09T10:19:19.697Z,6.70
2023-01-09T10:21:58.246Z,6.60
2023-01-09T10:24:38.503Z,6.70
2023-01-09T10:27:18.759Z,6.80
2023-01-09T10:29:59.760Z,6.90
2023-01-09T10:32:56.244Z,6.90
2023-01-09T10:35:47.065Z,6.90
2023-01-09T10:38:20.778Z,6.80
2023-01-09T10:40:53.807Z,7.00
2023-01-09T10:43:29.976Z,7.00
2023-01-09T10:46:03.235Z,6.80
2023-01-09T10:48:34.662Z,7.00
2023-01-09T10:51:03.465Z,7.00
2023-01-09T10:53:38.536Z,7.00
2023-01-09T10:56:12.646Z,7.10
2023-01-09T10:58:40.516Z,7.10
2023-01-09T11:01:10.113Z,7.10
2023-01-09T11:03:39.132Z,7.10
2023-01-09T11:06:23.030Z,7.10
2023-01-09T11:08:55.114Z,7.00
2023-01-09T11:11:34.652Z,7.10
2023-01-09T11:14:08.414Z,7.20
2023-01-09T11:16:36.427Z,7.10
2023-01-09T11:19:04.492Z,7.10
2023-01-09T11:21:36.112Z,7.20
2023-01-09T11:24:28.701Z,7.30
2023-01-09T11:27:24.596Z,7.30
2023-01-09T11:30:27.532Z,7.30
2023-01-09T11:32:56.999Z,7.30
2023-01-09T11:35:28.804Z,7.40
2023-01-09T11:38:08.013Z,7.30
2023-01-09T11:40:49.259Z,7.40
2023-01-09T11:43:21.603Z,7.20
2023-01-09T11:46:00.535Z,7.20
2023-01-09T11:48:37.569Z,7.40
2023-01-09T11:51:08.023Z,7.40
2023-01-09T11:53:51.780Z,7.40
2023-01-09T11:56:20.967Z,7.30
2023-01-09T11:58:48.849Z,7.20
2023-01-09T12:01:44.200Z,7.30
2023-01-09T12:04:24.872Z,7.30
2023-01-09T12:07:08.056Z,7.50
2023-01-09T12:09:44.871Z,7.60
2023-01-09T12:12:24.024Z,7.60
2023-01-09T12:15:07.144Z,7.60
2023-01-09T12:18:07.684Z,7.60
2023-01-09T12:20:48.307Z,7.60
2023-01-09T12:23:29.640Z,7.50
2023-01-09T12:26:05.399Z,7.60
2023-01-09T12:29:00.648Z,7.60
2023-01-09T12:31:45.969Z,7.60
2023-01-09T12:34:28.674Z,7.60
2023-01-09T12:37:05.840Z,7.60
2023-01-09T12:39:44.495Z,7.40
2023-01-09T12:42:34.617Z,7.50
2023-01-09T12:45:13.683Z,7.60
2023-01-09T12:47:46.797Z,7.70
2023-01-09T12:50:32.078Z,7.70
2023-01-09T12:53:08.523Z,7.70
2023-01-09T12:55:41.415Z,7.70
2023-01-09T12:58:17.492Z,7.60
2023-01-09T13:00:51.399Z,7.80
2023-01-09T13:03:25.759Z,7.80
2023-01-09T13:05:54.442Z,7.80
2023-01-09T13:08:26.628Z,7.80
2023-01-09T13:10:59.882Z,7.80
2023-01-09T13:13:31.742Z,7.80
2023-01-09T13:16:07.178Z,7.80
2023-01-09T13:18:40.872Z,7.60
2023-01-09T13:21:09.627Z,7.80
2023-01-09T13:23:47.953Z,7.80
2023-01-09T13:26:17.960Z,7.70
2023-01-09T13:28:50.427Z,7.70
2023-01-09T13:31:39.881Z,7.70
2023-01-09T13:34:21.543Z,7.60
2023-01-09T13:36:52.824Z,7.60
2023-01-09T13:39:22.853Z,7.60
2023-01-09T13:42:12.711Z,7.50
2023-01-09T13:44:41.164Z,7.40
2023-01-09T13:47:18.601Z,7.40
2023-01-09T13:50:18.363Z,7.50
2023-01-09T13:52:46.280Z,7.50
2023-01-09T13:55:31.629Z,7.50
2023-01-09T13:58:25.615Z,7.50
2023-01-09T14:00:59.820Z,7.60
2023-01-09T14:03:34.626Z,7.60
2023-01-09T14:06:16.158Z,7.60
2023-01-09T14:08:46.318Z,7.50
2023-01-09T14:11:21.637Z,7.50
2023-01-09T14:13:59.996Z,7.50
2023-01-09T14:16:29.988Z,7.40
2023-01-09T14:19:04.659Z,7.40
2023-01-09T14:21:51.159Z,7.40
2023-01-09T14:24:27.842Z,7.40
2023-01-09T14:26:57.855Z,7.40
2023-01-09T14:29:47.444Z,7.40
2023-01-09T14:32:46.611Z,7.40
2023-01-09T14:35:21.035Z,7.30
2023-01-09T14:38:03.260Z,7.30
2023-01-09T14:40:32.405Z,7.30
2023-01-09T14:43:06.824Z,7.20
2023-01-09T14:45:36.963Z,7.20
2023-01-09T14:48:09.645Z,7.20
2023-01-09T14:50:44.974Z,7.20
2023-01-09T14:53:14.757Z,7.30
2023-01-09T14:55:51.671Z,7.30
2023-01-09T14:58:22.948Z,7.30
2023-01-09T15:00:56.389Z,7.20
2023-01-09T15:03:26.311Z,7.20
2023-01-09T15:05:55.706Z,7.20
2023-01-09T15:08:27.223Z,7.20
2023-01-09T15:10:57.913Z,7.20
2023-01-09T15:13:31.680Z,7.20
2023-01-09T15:16:01.508Z,7.20
2023-01-09T15:18:32.048Z,7.10
2023-01-09T15:21:03.744Z,7.10
2023-01-09T15:23:32.151Z,7.00
2023-01-09T15:26:14.268Z,6.90
2023-01-09T15:28:44.546Z,6.90
2023-01-09T15:31:18.040Z,6.70
2023-01-09T15:33:47.757Z,6.70
2023-01-09T15:36:20.240Z,6.70
2023-01-09T15:38:50.208Z,6.70
2023-01-09T15:41:40.497Z,6.70
2023-01-09T15:44:15.206Z,6.70
2023-01-09T15:46:46.148Z,6.70
2023-01-09T15:49:15.051Z,6.90
2023-01-09T15:51:47.345Z,6.90
2023-01-09T15:54:16.083Z,6.90
2023-01-09T15:56:46.148Z,6.90
2023-01-09T15:59:27.359Z,6.90
2023-01-09T16:02:14.660Z,6.80
2023-01-09T16:04:43.030Z,6.80
2023-01-09T16:07:16.751Z,6.80
2023-01-09T16:09:48.624Z,6.70
2023-01-09T16:12:20.840Z,6.70
2023-01-09T16:14:53.722Z,6.70
2023-01-09T16:17:26.442Z,6.70
2023-01-09T16:19:57.786Z,6.60
2023-01-09T16:22:29.087Z,6.60
2023-01-09T16:24:58.679Z,6.60
2023-01-09T16:27:28.662Z,6.60
2023-01-09T16:29:58.902Z,6.50
2023-01-09T16:32:29.601Z,6.40
2023-01-09T16:34:58.917Z,6.50
2023-01-09T16:37:29.190Z,6.40
2023-01-09T16:40:31.998Z,6.40
2023-01-09T16:43:00.721Z,6.40
2023-01-09T16:45:30.972Z,6.40
2023-01-09T16:47:59.175Z,6.40
2023-01-09T16:50:27.213Z,6.20
2023-01-09T16:52:57.317Z,6.20
2023-01-09T16:55:25.564Z,6.30
2023-01-09T16:57:53.750Z,6.20
2023-01-09T17:00:22.517Z,6.20
2023-01-09T17:02:50.469Z,6.20
2023-01-09T17:05:18.708Z,6.20
2023-01-09T17:07:46.460Z,6.10
2023-01-09T17:10:22.231Z,6.10
2023-01-09T17:12:50.257Z,6.10
2023-01-09T17:15:18.065Z,6.10
2023-01-09T17:17:46.135Z,6.10
2023-01-09T17:20:19.647Z,6.10
2023-01-09T17:22:47.620Z,6.10
2023-01-09T17:25:35.234Z,6.10
2023-01-09T17:28:22.256Z,6.00
2023-01-09T17:30:50.279Z,6.00
2023-01-09T17:33:19.206Z,6.10
2023-01-09T17:35:47.574Z,6.10
2023-01-09T17:38:16.677Z,6.10
2023-01-09T17:40:46.559Z,6.10
2023-01-09T17:43:15.026Z,6.10
2023-01-09T17:45:43.528Z,6.00
2023-01-09T17:48:17.149Z,6.00
2023-01-09T17:50:45.457Z,5.90
2023-01-09T17:53:13.849Z,5.90
2023-01-09T17:55:42.703Z,5.90
2023-01-09T17:58:25.872Z,5.80
2023-01-09T18:00:54.290Z,5.70
2023-01-09T18:03:24.236Z,5.60
2023-01-09T18:05:52.293Z,5.70
2023-01-09T18:08:20.187Z,5.50
2023-01-09T18:10:48.606Z,5.70
2023-01-09T18:13:18.303Z,5.60
2023-01-09T18:15:47.105Z,5.50
2023-01-09T18:18:16.004Z,5.60
2023-01-09T18:20:45.354Z,5.60
2023-01-09T18:23:13.461Z,5.60
2023-01-09T18:25:42.131Z,5.50
2023-01-09T18:28:10.759Z,5.50
2023-01-09T18:30:40.388Z,5.50
2023-01-09T18:33:08.231Z,5.50
2023-01-09T18:35:36.100Z,5.50
2023-01-09T18:38:04.015Z,5.50
2023-01-09T18:40:33.001Z,5.40
2023-01-09T18:43:04.888Z,5.30
2023-01-09T18:45:33.183Z,5.20
2023-01-09T18:48:02.408Z,5.20
2023-01-09T18:50:30.528Z,5.20
2023-01-09T18:52:59.615Z,5.10
2023-01-09T18:55:27.493Z,5.20
2023-01-09T18:57:56.942Z,5.10
2023-01-09T19:00:24.878Z,5.20
2023-01-09T19:02:52.885Z,5.10
2023-01-09T19:05:22.159Z,5.10
2023-01-09T19:07:50.061Z,5.10
2023-01-09T19:10:18.507Z,5.00
2023-01-09T19:12:46.420Z,5.00
2023-01-09T19:15:14.228Z,5.10
2023-01-09T19:17:42.451Z,5.20
2023-01-09T19:20:11.686Z,5.20
2023-01-09T19:22:40.860Z,5.20
2023-01-09T19:25:11.825Z,5.30
2023-01-09T19:27:39.677Z,5.30
2023-01-09T19:30:09.052Z,5.20
2023-01-09T19:32:38.215Z,5.20
2023-01-09T19:35:06.683Z,5.20
2023-01-09T19:37:35.210Z,5.20
2023-01-09T19:40:04.840Z,5.20
2023-01-09T19:42:32.708Z,5.10
2023-01-09T19:45:00.638Z,5.10
2023-01-09T19:47:28.744Z,5.10
2023-01-09T19:49:56.725Z,5.10
2023-01-09T19:52:24.935Z,5.10
2023-01-09T19:54:53.863Z,5.00
2023-01-09T19:57:23.022Z,5.00
2023-01-09T19:59:50.891Z,5.00
2023-01-09T20:02:18.836Z,4.90
2023-01-09T20:04:46.977Z,4.80
2023-01-09T20:07:17.125Z,4.80
2023-01-09T20:09:45.003Z,4.80
2023-01-09T20:12:12.749Z,4.70
2023-01-09T20:14:42.070Z,4.70
2023-01-09T20:17:10.026Z,4.60
2023-01-09T20:19:37.853Z,4.60
2023-01-09T20:22:05.702Z,4.60
2023-01-09T20:24:33.647Z,4.60
2023-01-09T20:27:01.541Z,4.60
2023-01-09T20:29:29.531Z,4.60
2023-01-09T20:31:58.781Z,4.60
2023-01-09T20:34:26.837Z,4.70
2023-01-09T20:36:55.412Z,4.70
2023-01-09T20:39:23.402Z,4.70
2023-01-09T20:41:51.291Z,4.80
2023-01-09T20:44:19.399Z,4.80
2023-01-09T20:46:48.040Z,4.80
2023-01-09T20:49:19.167Z,4.80
2023-01-09T20:51:49.494Z,4.80
2023-01-09T20:54:18.603Z,4.80
2023-01-09T20:56:46.409Z,4.80
2023-01-09T20:59:17.793Z,4.90
2023-01-09T21:01:45.730Z,4.80
2023-01-09T21:04:13.831Z,4.90
2023-01-09T21:06:43.549Z,4.80
2023-01-09T21:09:11.432Z,4.80
2023-01-09T21:11:39.279Z,4.70
2023-01-09T21:14:07.170Z,4.50
2023-01-09T21:16:35.088Z,4.60
2023-01-09T21:19:02.911Z,4.70
2023-01-09T21:21:31.195Z,4.70
2023-01-09T21:24:01.438Z,4.70
2023-01-09T21:26:30.565Z,4.70
2023-01-09T21:29:00.429Z,4.70
2023-01-09T21:31:33.637Z,4.70
2023-01-09T21:34:03.104Z,4.70
2023-01-09T21:36:31.446Z,4.70
2023-01-09T21:39:01.064Z,4.60
2023-01-09T21:41:46.720Z,4.50
2023-01-09T21:44:32.030Z,4.50
2023-01-09T21:47:00.120Z,4.50
2023-01-09T21:49:31.022Z,4.50
2023-01-09T21:51:58.973Z,4.50
2023-01-09T21:54:28.130Z,4.40
2023-01-09T21:56:56.028Z,4.40
2023-01-09T21:59:24.035Z,4.40
2023-01-09T22:01:52.718Z,4.40
2023-01-09T22:04:23.496Z,4.40
2023-01-09T22:06:52.098Z,4.30
2023-01-09T22:09:19.955Z,4.30
2023-01-09T22:11:49.263Z,4.30
2023-01-09T22:14:19.039Z,4.20
2023-01-09T22:16:47.849Z,4.30
2023-01-09T22:19:17.882Z,4.30
2023-01-09T22:21:46.054Z,4.40
2023-01-09T22:24:15.064Z,4.40
2023-01-09T22:26:43.234Z,4.40
2023-01-09T22:29:12.512Z,4.40
2023-01-09T22:31:42.834Z,4.50
2023-01-09T22:34:15.730Z,4.50
2023-01-09T22:36:44.085Z,4.50
2023-01-09T22:39:13.988Z,4.50
2023-01-09T22:41:42.623Z,4.50
2023-01-09T22:44:13.455Z,4.50
2023-01-09T22:46:41.410Z,4.50
2023-01-09T22:49:12.054Z,4.50
2023-01-09T22:51:40.105Z,4.50
2023-01-09T22:54:08.522Z,4.50
2023-01-09T22:56:36.490Z,4.50
2023-01-09T22:59:04.344Z,4.40
2023-01-09T23:01:33.535Z,4.50
2023-01-09T23:04:02.787Z,4.50
2023-01-09T23:06:30.563Z,4.50
2023-01-09T23:08:58.353Z,4.50
2023-01-09T23:11:46.764Z,4.50
2023-01-09T23:14:14.710Z,4.50
2023-01-09T23:16:44.331Z,4.60
2023-01-09T23:19:15.512Z,4.50
2023-01-09T23:21:43.893Z,4.60
2023-01-09T23:24:13.132Z,4.60
2023-01-09T23:26:41.034Z,4.60
2023-01-09T23:29:09.172Z,4.60
2023-01-09T23:31:37.585Z,4.60
2023-01-09T23:34:08.261Z,4.60
2023-01-09T23:36:36.612Z,4.60
2023-01-09T23:39:08.823Z,4.80
2023-01-09T23:41:54.621Z,4.60
2023-01-09T23:44:22.510Z,4.60
2023-01-09T23:46:50.378Z,4.50
2023-01-09T23:49:19.647Z,4.50
2023-01-09T23:51:47.966Z,4.50
2023-01-09T23:54:16.989Z,4.50
2023-01-09T23:56:44.782Z,4.40
2023-01-09T23:59:13.735Z,4.40
